Terminal Aerodrome Forecast
Issued by NWS Mt. Holly, NJ

Home | Current Version | Previous Version | Text Only | Print | Product List | Glossary On
Versions: 1 2 3 4 5 6 7 8 9 10 11 12 13 14 15 16 17 18 19 20 21 22 23
000
FTUS41 KPHI 260500
TAFPHL
TAF
KPHL 260520Z 2606/2712 24009KT P6SM SCT050 BKN100
     FM260800 29012KT P6SM SCT100
     FM261400 30018G28KT P6SM FEW050
     FM262100 29016G24KT P6SM BKN050
     FM270100 30009KT P6SM SKC=

USA.gov is the U.S. government's official web portal to all federal, state and local government web resources and services.